Time;durP1;ratioP1;P1;durP2;ratioP2;P2;SDS_P1;SDS_P2;PMS_P1;PMS_P2;Temp;Humidity;BMP_temperature;BMP_pressure;BME280_temperature;BME280_humidity;BME280_pressure;Samples;Min_cycle;Max_cycle;Signal;HPM_P1;HPM_P2
2023/03/15 00:01:03;;;;;;;21.50;16.47;;;12.80;92.60;;;;;;5075696;28;20447;-88
2023/03/15 00:03:28;;;;;;;27.07;16.00;;;12.80;92.50;;;;;;5075335;28;20433;-82
2023/03/15 00:05:54;;;;;;;24.33;16.17;;;12.80;92.20;;;;;;5075544;28;20425;-86
2023/03/15 00:08:20;;;;;;;17.90;15.60;;;12.80;92.40;;;;;;5075598;28;20208;-80
2023/03/15 00:10:47;;;;;;;21.03;14.80;;;12.80;92.30;;;;;;5075233;28;20210;-81
2023/03/15 00:13:15;;;;;;;20.27;14.10;;;12.80;92.10;;;;;;5075297;28;20976;-87
2023/03/15 00:15:50;;;;;;;22.33;15.50;;;12.80;92.20;;;;;;5074098;28;20488;-85
2023/03/15 00:18:17;;;;;;;18.40;14.70;;;12.80;92.40;;;;;;5073862;28;20961;-81
2023/03/15 00:20:44;;;;;;;22.80;14.30;;;12.90;92.50;;;;;;5075133;28;20479;-88
2023/03/15 00:23:10;;;;;;;20.80;13.30;;;12.90;92.60;;;;;;5075184;28;21002;-88
2023/03/15 00:25:36;;;;;;;23.10;15.60;;;12.90;92.70;;;;;;5073867;28;20426;-87
2023/03/15 00:28:02;;;;;;;20.65;13.43;;;12.90;92.80;;;;;;5073741;28;20499;-82
2023/03/15 00:30:28;;;;;;;16.00;12.53;;;13.00;93.00;;;;;;5075195;28;20638;-82
2023/03/15 00:32:54;;;;;;;19.83;12.77;;;13.00;93.20;;;;;;5073358;28;20538;-88
2023/03/15 00:35:21;;;;;;;15.17;11.17;;;13.00;93.60;;;;;;5076490;28;20642;-82
2023/03/15 00:37:47;;;;;;;15.10;11.80;;;13.10;94.10;;;;;;5073314;28;20193;-88
2023/03/15 00:40:12;;;;;;;17.73;12.37;;;13.10;94.40;;;;;;5075739;28;20418;-81
2023/03/15 00:42:39;;;;;;;21.30;12.63;;;13.20;94.60;;;;;;5073289;28;20434;-81
2023/03/15 00:45:06;;;;;;;16.77;11.10;;;13.20;95.10;;;;;;5075182;28;20421;-88
2023/03/15 00:47:31;;;;;;;14.90;10.37;;;13.20;95.40;;;;;;5073281;28;20445;-81
2023/03/15 00:49:57;;;;;;;14.60;10.40;;;13.30;95.80;;;;;;5075103;28;20907;-81
2023/03/15 00:52:23;;;;;;;14.87;10.17;;;13.40;96.50;;;;;;5074406;28;20283;-81
2023/03/15 00:54:53;;;;;;;12.57;9.60;;;13.40;96.60;;;;;;5072877;28;20532;-81
2023/03/15 00:57:19;;;;;;;13.27;9.23;;;13.40;97.30;;;;;;5074564;28;20197;-88
2023/03/15 00:59:44;;;;;;;11.77;9.33;;;13.40;97.80;;;;;;5073204;28;20429;-88
2023/03/15 01:02:11;;;;;;;7.97;6.20;;;13.40;98.60;;;;;;5072965;28;20438;-82
2023/03/15 01:04:37;;;;;;;6.70;5.87;;;13.40;99.90;;;;;;5074706;28;20517;-82
2023/03/15 01:07:03;;;;;;;4.50;3.97;;;13.50;99.90;;;;;;5074338;28;20507;-87
2023/03/15 01:09:30;;;;;;;4.83;3.53;;;13.50;99.90;;;;;;5074211;28;20934;-81
2023/03/15 01:11:57;;;;;;;7.50;3.83;;;13.60;99.90;;;;;;5072867;28;20527;-86
2023/03/15 01:14:23;;;;;;;3.43;3.00;;;13.70;99.90;;;;;;5072556;28;20476;-86
2023/03/15 01:16:49;;;;;;;5.90;3.60;;;13.70;99.90;;;;;;5072731;28;20410;-86
2023/03/15 01:19:15;;;;;;;4.80;3.23;;;13.80;99.90;;;;;;5074575;28;20449;-88
2023/03/15 01:21:40;;;;;;;3.23;2.93;;;13.80;99.90;;;;;;5073898;28;20460;-80
2023/03/15 01:24:11;;;;;;;5.83;3.23;;;13.90;99.90;;;;;;5072839;28;20212;-82
2023/03/15 01:26:36;;;;;;;3.63;3.20;;;13.90;99.90;;;;;;5073937;28;20409;-81
2023/03/15 01:29:02;;;;;;;5.67;4.10;;;13.80;99.90;;;;;;5072787;28;20429;-81
2023/03/15 01:31:29;;;;;;;4.77;3.87;;;13.80;99.90;;;;;;5073850;28;20245;-85
2023/03/15 01:33:56;;;;;;;10.60;4.67;;;13.80;99.90;;;;;;5073990;28;20197;-81
2023/03/15 01:36:23;;;;;;;5.30;4.60;;;13.80;99.90;;;;;;5072626;28;20949;-87
2023/03/15 01:38:49;;;;;;;6.43;4.53;;;13.80;99.90;;;;;;5072529;28;20506;-80
2023/03/15 01:41:16;;;;;;;7.43;5.87;;;13.80;99.90;;;;;;5072594;28;20425;-81
2023/03/15 01:43:48;;;;;;;5.93;5.17;;;13.80;99.90;;;;;;5073971;28;20440;-81
2023/03/15 01:46:24;;;;;;;8.37;5.90;;;13.80;99.90;;;;;;5072548;28;20442;-81
2023/03/15 01:49:06;;;;;;;5.30;4.80;;;13.80;99.90;;;;;;5073764;28;20990;-81
2023/03/15 01:51:34;;;;;;;8.27;5.87;;;13.80;99.90;;;;;;5072515;28;20484;-82
2023/03/15 01:54:04;;;;;;;6.70;6.00;;;13.70;99.90;;;;;;5074200;28;20413;-81
2023/03/15 01:56:31;;;;;;;6.63;5.87;;;13.60;99.90;;;;;;5073666;28;20445;-86
2023/03/15 01:59:00;;;;;;;6.90;5.80;;;13.60;99.90;;;;;;5072414;28;20529;-87
2023/03/15 02:01:26;;;;;;;7.10;5.37;;;13.50;99.90;;;;;;5072277;28;20410;-87
2023/03/15 02:03:58;;;;;;;6.77;5.73;;;13.50;99.90;;;;;;5072267;28;20446;-82
2023/03/15 02:06:24;;;;;;;10.07;5.90;;;13.50;99.90;;;;;;5076465;28;20501;-87
2023/03/15 02:09:01;;;;;;;6.90;5.40;;;13.40;99.90;;;;;;5076390;28;20446;-87
2023/03/15 02:11:27;;;;;;;6.70;6.00;;;13.40;99.90;;;;;;5077635;28;20491;-86
2023/03/15 02:13:55;;;;;;;5.47;4.97;;;13.40;99.90;;;;;;5076107;28;20548;-87
2023/03/15 02:16:22;;;;;;;5.40;4.90;;;13.30;99.90;;;;;;5077667;28;20177;-81
2023/03/15 02:18:48;;;;;;;7.13;5.30;;;13.30;99.90;;;;;;5077663;28;20450;-87
2023/03/15 02:21:31;;;;;;;6.00;5.20;;;13.30;99.90;;;;;;5077439;28;20907;-86
2023/03/15 02:24:19;;;;;;;5.00;4.60;;;13.30;99.90;;;;;;5076179;28;20462;-87
2023/03/15 02:26:52;;;;;;;5.67;5.17;;;13.20;99.90;;;;;;5076046;28;20785;-81
2023/03/15 02:29:18;;;;;;;6.00;4.60;;;13.20;99.90;;;;;;5077846;28;20424;-87
2023/03/15 02:31:44;;;;;;;5.10;4.60;;;13.20;99.90;;;;;;5075763;28;20477;-87
2023/03/15 02:34:09;;;;;;;5.50;5.00;;;13.20;99.90;;;;;;5076170;28;20444;-81
2023/03/15 02:36:35;;;;;;;5.20;4.27;;;13.20;99.90;;;;;;5077156;28;20177;-82
2023/03/15 02:39:16;;;;;;;5.70;4.70;;;13.20;99.90;;;;;;5077078;28;20512;-86
2023/03/15 02:41:45;;;;;;;5.17;4.43;;;13.20;99.90;;;;;;5076937;28;20420;-81
2023/03/15 02:44:15;;;;;;;4.17;3.77;;;13.20;99.90;;;;;;5077356;28;20422;-87
2023/03/15 02:46:42;;;;;;;5.30;4.00;;;13.20;99.90;;;;;;5077063;28;20945;-81
2023/03/15 02:49:09;;;;;;;3.83;3.53;;;13.20;99.90;;;;;;5076085;28;20513;-81
2023/03/15 02:51:35;;;;;;;6.63;4.07;;;13.20;99.90;;;;;;5076714;28;20564;-87
2023/03/15 02:54:01;;;;;;;4.00;3.70;;;13.20;99.90;;;;;;5077288;28;20460;-86
2023/03/15 02:56:26;;;;;;;5.80;3.97;;;13.10;99.90;;;;;;5076720;28;20634;-85
2023/03/15 02:58:52;;;;;;;4.47;3.50;;;13.10;99.90;;;;;;5075485;28;20539;-82
2023/03/15 03:01:18;;;;;;;4.43;3.90;;;13.10;99.90;;;;;;5076756;28;20178;-81
2023/03/15 03:03:45;;;;;;;6.63;3.50;;;13.00;99.90;;;;;;5076762;28;20287;-81
2023/03/15 03:06:12;;;;;;;3.60;3.30;;;13.00;99.90;;;;;;5076511;28;20817;-86
2023/03/15 03:08:38;;;;;;;6.10;3.57;;;13.00;99.90;;;;;;5076577;28;20444;-81
2023/03/15 03:11:05;;;;;;;3.77;3.40;;;13.00;99.90;;;;;;5076600;28;20477;-84
2023/03/15 03:13:31;;;;;;;3.37;3.07;;;13.00;99.90;;;;;;5074923;28;20449;-82
2023/03/15 03:15:59;;;;;;;5.60;3.60;;;12.90;99.90;;;;;;5076050;28;20427;-81
2023/03/15 03:18:27;;;;;;;3.73;3.43;;;12.90;99.90;;;;;;5075086;28;20477;-86
2023/03/15 03:20:56;;;;;;;3.63;3.30;;;12.90;99.90;;;;;;5076299;28;20418;-81
2023/03/15 03:23:24;;;;;;;3.70;3.20;;;12.90;99.90;;;;;;5075051;28;20443;-86
2023/03/15 03:25:54;;;;;;;3.60;3.27;;;12.90;99.90;;;;;;5075314;28;20418;-86
2023/03/15 03:28:22;;;;;;;3.37;3.07;;;12.90;99.90;;;;;;5074950;28;20464;-87
2023/03/15 03:30:49;;;;;;;3.33;3.13;;;12.90;99.90;;;;;;5076065;28;20454;-81
2023/03/15 03:33:15;;;;;;;3.13;2.90;;;12.80;99.90;;;;;;5076335;28;20441;-86
2023/03/15 03:35:41;;;;;;;4.37;3.50;;;12.80;99.90;;;;;;5076679;28;20911;-81
2023/03/15 03:38:08;;;;;;;5.00;3.57;;;12.70;99.90;;;;;;5076762;28;20288;-80
2023/03/15 03:40:33;;;;;;;3.80;3.50;;;12.70;99.90;;;;;;5076387;28;20417;-81
2023/03/15 03:42:59;;;;;;;3.23;2.90;;;12.70;99.90;;;;;;5074583;28;20942;-87
2023/03/15 03:45:25;;;;;;;5.13;3.40;;;12.80;99.90;;;;;;5075987;28;20185;-81
2023/03/15 03:47:50;;;;;;;3.90;3.50;;;12.70;99.90;;;;;;5074559;28;20204;-86
2023/03/15 03:50:16;;;;;;;3.50;3.20;;;12.70;99.90;;;;;;5075810;28;20181;-84
2023/03/15 03:52:42;;;;;;;3.67;3.37;;;12.70;99.90;;;;;;5074344;28;20213;-80
2023/03/15 03:55:12;;;;;;;4.20;2.97;;;12.70;99.90;;;;;;5074660;28;20612;-80
2023/03/15 03:57:41;;;;;;;3.67;3.13;;;12.70;99.90;;;;;;5075466;28;20446;-86
2023/03/15 04:00:10;;;;;;;2.97;2.67;;;12.70;99.90;;;;;;5074296;28;20445;-82
2023/03/15 04:02:36;;;;;;;3.77;3.23;;;12.70;99.90;;;;;;5075362;28;20438;-81
2023/03/15 04:05:02;;;;;;;3.80;3.27;;;12.70;99.90;;;;;;5076016;28;20771;-82
2023/03/15 04:07:27;;;;;;;3.50;3.07;;;12.70;99.90;;;;;;5074137;28;20207;-86
2023/03/15 04:09:53;;;;;;;3.63;3.33;;;12.70;99.90;;;;;;5075946;28;20430;-86
2023/03/15 04:12:19;;;;;;;4.53;2.83;;;12.70;99.90;;;;;;5075296;28;20580;-82
2023/03/15 04:14:45;;;;;;;2.90;2.63;;;12.70;99.90;;;;;;5075408;28;20579;-86
2023/03/15 04:17:11;;;;;;;2.80;2.60;;;12.70;99.90;;;;;;5074773;28;20197;-81
2023/03/15 04:19:37;;;;;;;3.37;3.07;;;12.70;99.90;;;;;;5076412;28;20895;-81
2023/03/15 04:22:05;;;;;;;3.17;2.87;;;12.70;99.90;;;;;;5075975;28;20441;-86
2023/03/15 04:24:35;;;;;;;3.50;3.07;;;12.60;99.90;;;;;;5074380;28;20173;-84
2023/03/15 04:27:01;;;;;;;4.20;2.97;;;12.60;99.90;;;;;;5075026;28;20908;-81
2023/03/15 04:29:27;;;;;;;2.85;2.65;;;12.60;99.90;;;;;;5073292;28;20426;-80
2023/03/15 04:32:00;;;;;;;4.00;3.27;;;12.60;99.90;;;;;;5074737;28;20217;-81
2023/03/15 04:34:29;;;;;;;3.20;2.95;;;12.50;99.90;;;;;;5075239;28;20426;-86
2023/03/15 04:36:56;;;;;;;4.55;3.20;;;12.50;99.90;;;;;;5073412;28;20197;-80
2023/03/15 04:39:22;;;;;;;3.63;3.33;;;12.50;99.90;;;;;;5075116;28;20189;-82
2023/03/15 04:41:48;;;;;;;3.55;3.25;;;12.40;99.90;;;;;;5074656;28;20421;-82
2023/03/15 04:44:15;;;;;;;3.80;3.47;;;12.40;99.90;;;;;;5073598;28;20219;-87
2023/03/15 04:46:41;;;;;;;3.70;3.40;;;12.30;99.90;;;;;;5073365;28;20181;-81
2023/03/15 04:49:07;;;;;;;3.63;3.23;;;12.20;99.90;;;;;;5074963;28;20414;-86
2023/03/15 04:51:33;;;;;;;3.07;2.87;;;12.20;99.90;;;;;;5074397;28;20488;-86
2023/03/15 04:53:59;;;;;;;3.15;2.85;;;12.10;99.90;;;;;;5075016;28;20205;-87
2023/03/15 04:56:25;;;;;;;4.80;3.63;;;12.10;99.90;;;;;;5075254;28;20669;-86
2023/03/15 04:58:51;;;;;;;4.40;3.60;;;12.10;99.90;;;;;;5073135;28;20441;-81
2023/03/15 05:01:17;;;;;;;3.63;3.30;;;12.00;99.90;;;;;;5074370;28;20402;-81
2023/03/15 05:03:43;;;;;;;3.60;3.30;;;11.90;99.90;;;;;;5074171;28;20201;-87
2023/03/15 05:06:08;;;;;;;5.63;4.33;;;11.90;99.90;;;;;;5073053;28;20184;-86
2023/03/15 05:08:37;;;;;;;4.87;4.40;;;11.80;99.90;;;;;;5074328;28;20651;-87
2023/03/15 05:11:03;;;;;;;3.90;3.50;;;11.80;99.90;;;;;;5072892;28;20211;-87
2023/03/15 05:13:29;;;;;;;4.20;3.80;;;11.70;99.90;;;;;;5074214;28;20197;-82
2023/03/15 05:15:55;;;;;;;4.10;3.80;;;11.70;99.90;;;;;;5074274;28;20235;-86
2023/03/15 05:18:22;;;;;;;3.78;3.47;;;11.60;99.90;;;;;;5072907;28;20446;-82
2023/03/15 05:20:48;;;;;;;3.83;3.40;;;11.60;99.90;;;;;;5074069;28;20203;-87
2023/03/15 05:23:14;;;;;;;4.05;3.65;;;11.50;99.90;;;;;;5072736;28;20553;-88
2023/03/15 05:25:39;;;;;;;3.40;3.10;;;11.50;99.90;;;;;;5074042;28;20177;-83
2023/03/15 05:28:05;;;;;;;4.03;3.63;;;11.50;99.90;;;;;;5073797;28;20215;-81
2023/03/15 05:30:31;;;;;;;3.87;3.47;;;11.50;99.90;;;;;;5073962;28;20553;-86
2023/03/15 05:32:57;;;;;;;4.00;3.70;;;11.40;99.90;;;;;;5073752;28;20690;-87
2023/03/15 05:35:25;;;;;;;4.00;3.60;;;11.40;99.90;;;;;;5072618;28;20177;-86
2023/03/15 05:37:53;;;;;;;4.20;3.85;;;11.40;99.90;;;;;;5072385;28;20978;-88
2023/03/15 05:40:19;;;;;;;4.35;3.95;;;11.30;99.90;;;;;;5074655;28;20165;-86
2023/03/15 05:42:45;;;;;;;5.60;3.83;;;11.30;99.90;;;;;;5074921;28;20703;-82
2023/03/15 05:45:11;;;;;;;4.40;4.00;;;11.30;99.90;;;;;;5074689;28;20184;-82
2023/03/15 05:47:36;;;;;;;4.60;4.20;;;11.30;99.90;;;;;;5072411;28;20193;-87
2023/03/15 05:50:03;;;;;;;4.67;4.17;;;11.20;99.90;;;;;;5074205;28;20231;-82
2023/03/15 05:52:30;;;;;;;4.25;3.95;;;11.20;99.90;;;;;;5073668;28;20266;-81
2023/03/15 05:54:56;;;;;;;4.22;3.83;;;11.20;99.90;;;;;;5072588;28;20181;-82
2023/03/15 05:57:22;;;;;;;5.03;4.57;;;11.20;99.90;;;;;;5073595;28;20204;-82
2023/03/15 05:59:48;;;;;;;4.97;4.47;;;11.10;99.90;;;;;;5074083;28;20607;-81
2023/03/15 06:02:14;;;;;;;5.70;4.23;;;11.10;99.90;;;;;;5073545;28;20201;-88
2023/03/15 06:04:40;;;;;;;4.37;4.07;;;11.10;99.90;;;;;;5074016;28;20418;-87
2023/03/15 06:07:05;;;;;;;4.07;3.67;;;11.00;99.90;;;;;;5073465;28;20233;-82
2023/03/15 06:09:31;;;;;;;4.73;4.23;;;11.10;99.90;;;;;;5073543;28;20610;-85
2023/03/15 06:11:57;;;;;;;5.40;4.90;;;11.00;99.90;;;;;;5073352;28;20733;-86
2023/03/15 06:14:24;;;;;;;4.90;4.50;;;10.90;99.90;;;;;;5072039;28;20232;-83
2023/03/15 06:16:50;;;;;;;5.30;4.78;;;10.90;99.90;;;;;;5072217;28;20185;-81
2023/03/15 06:19:16;;;;;;;5.07;4.60;;;10.80;99.90;;;;;;5073769;28;20177;-88
2023/03/15 06:21:41;;;;;;;5.10;4.60;;;10.80;99.90;;;;;;5072148;28;20554;-81
2023/03/15 06:24:07;;;;;;;6.53;5.07;;;10.70;99.90;;;;;;5072793;28;20656;-88
2023/03/15 06:26:33;;;;;;;5.50;4.53;;;10.70;99.90;;;;;;5073435;28;20268;-88
2023/03/15 06:28:59;;;;;;;5.47;4.40;;;10.70;99.90;;;;;;5072443;28;20216;-88
2023/03/15 06:31:24;;;;;;;4.93;4.53;;;10.60;99.90;;;;;;5073375;28;20897;-86
2023/03/15 06:33:50;;;;;;;5.90;5.30;;;10.50;99.90;;;;;;5073410;28;20228;-88
2023/03/15 06:36:16;;;;;;;5.63;4.60;;;10.50;99.90;;;;;;5073320;28;20409;-86
2023/03/15 06:38:42;;;;;;;5.10;4.60;;;10.50;99.90;;;;;;5071951;28;20524;-89
2023/03/15 06:41:08;;;;;;;5.23;4.73;;;10.40;99.90;;;;;;5072024;28;20181;-86
2023/03/15 06:43:34;;;;;;;6.78;5.05;;;10.40;99.90;;;;;;5071882;28;20258;-87
2023/03/15 06:45:59;;;;;;;4.80;4.40;;;10.40;99.90;;;;;;5073349;28;20173;-83
2023/03/15 06:48:30;;;;;;;5.40;4.90;;;10.40;99.90;;;;;;5073371;28;20193;-89
2023/03/15 06:50:56;;;;;;;8.70;5.03;;;10.40;99.90;;;;;;5073387;28;20161;-81
2023/03/15 06:53:21;;;;;;;5.05;4.53;;;10.30;99.90;;;;;;5076950;28;20227;-82
2023/03/15 06:55:49;;;;;;;4.87;4.37;;;10.30;99.90;;;;;;5076994;28;20597;-84
2023/03/15 06:58:15;;;;;;;4.85;4.40;;;10.30;99.90;;;;;;5075376;28;20201;-82
2023/03/15 07:00:41;;;;;;;5.23;4.73;;;10.20;99.90;;;;;;5075699;28;20181;-85
2023/03/15 07:03:07;;;;;;;4.85;4.40;;;10.20;99.90;;;;;;5075418;28;20441;-82
2023/03/15 07:05:33;;;;;;;4.33;3.93;;;10.20;99.90;;;;;;5076765;28;20192;-87
2023/03/15 07:07:59;;;;;;;4.88;4.45;;;10.20;99.90;;;;;;5075324;28;20189;-82
2023/03/15 07:10:25;;;;;;;5.20;4.20;;;10.30;99.90;;;;;;5076733;28;20180;-87
2023/03/15 07:12:50;;;;;;;5.40;4.90;;;10.30;99.90;;;;;;5076829;28;20242;-82
2023/03/15 07:15:16;;;;;;;6.47;4.93;;;10.30;99.90;;;;;;5075055;28;20229;-89
2023/03/15 07:17:42;;;;;;;6.57;5.60;;;10.30;99.90;;;;;;5075198;28;20291;-89
2023/03/15 07:20:08;;;;;;;5.80;4.93;;;10.30;99.90;;;;;;5075270;28;20430;-81
2023/03/15 07:22:34;;;;;;;5.30;4.43;;;10.20;99.90;;;;;;5076367;28;20224;-88
2023/03/15 07:25:00;;;;;;;5.20;4.70;;;10.20;99.90;;;;;;5075324;28;20220;-89
2023/03/15 07:27:26;;;;;;;6.03;5.37;;;10.20;99.90;;;;;;5076336;28;20193;-82
2023/03/15 07:29:51;;;;;;;5.93;4.95;;;10.10;99.90;;;;;;5075219;28;20207;-83
2023/03/15 07:32:17;;;;;;;5.83;4.97;;;10.10;99.90;;;;;;5074884;28;20224;-81
2023/03/15 07:34:43;;;;;;;4.97;4.47;;;10.10;99.90;;;;;;5076639;28;20169;-82
2023/03/15 07:37:09;;;;;;;5.50;5.00;;;10.10;99.90;;;;;;5076236;28;20303;-87
2023/03/15 07:39:35;;;;;;;6.03;4.45;;;10.10;99.90;;;;;;5075141;28;20634;-89
2023/03/15 07:42:00;;;;;;;4.77;4.30;;;10.10;99.90;;;;;;5076014;28;20197;-82
2023/03/15 07:44:26;;;;;;;6.03;5.37;;;10.10;99.90;;;;;;5076321;28;20202;-89
2023/03/15 07:46:53;;;;;;;5.80;4.80;;;10.10;99.90;;;;;;5074698;28;20591;-82
2023/03/15 07:49:19;;;;;;;5.00;4.45;;;10.10;99.90;;;;;;5076178;28;20763;-82
2023/03/15 07:51:45;;;;;;;5.07;4.03;;;10.00;99.90;;;;;;5075818;28;20205;-82
2023/03/15 07:54:10;;;;;;;5.10;4.57;;;9.90;99.90;;;;;;5074861;28;20177;-89
2023/03/15 07:56:36;;;;;;;6.47;4.07;;;9.90;99.90;;;;;;5075760;28;20658;-82
2023/03/15 07:59:02;;;;;;;5.80;4.07;;;9.80;99.90;;;;;;5074658;28;20181;-83
2023/03/15 08:01:27;;;;;;;5.93;4.70;;;9.70;99.90;;;;;;5075542;28;20174;-82
2023/03/15 08:03:53;;;;;;;5.23;4.43;;;9.60;99.90;;;;;;5073214;28;20205;-82
2023/03/15 08:06:19;;;;;;;6.17;4.60;;;9.60;99.90;;;;;;5074394;28;20411;-82
2023/03/15 08:08:45;;;;;;;5.40;4.77;;;9.60;99.90;;;;;;5075825;28;20208;-82
2023/03/15 08:11:11;;;;;;;6.57;4.30;;;9.60;99.90;;;;;;5074135;28;20224;-82
2023/03/15 08:13:37;;;;;;;7.23;4.37;;;9.50;99.90;;;;;;5073927;28;20197;-81
2023/03/15 08:16:03;;;;;;;4.80;4.20;;;9.50;99.90;;;;;;5075401;28;20416;-82
2023/03/15 08:18:28;;;;;;;5.33;4.53;;;9.50;99.90;;;;;;5074214;28;20197;-82
2023/03/15 08:20:55;;;;;;;5.87;4.63;;;9.50;99.90;;;;;;5074124;28;20984;-82
2023/03/15 08:23:21;;;;;;;4.45;4.05;;;9.50;99.90;;;;;;5074173;28;20444;-88
2023/03/15 08:25:47;;;;;;;5.03;4.47;;;9.40;99.90;;;;;;5073972;28;20634;-84
2023/03/15 08:28:13;;;;;;;6.55;4.90;;;9.40;99.90;;;;;;5073977;28;20251;-88
2023/03/15 08:33:23;;;;;;;5.93;4.88;;;9.30;99.90;;;;;;5075479;28;20457;-82
2023/03/15 08:35:53;;;;;;;5.20;4.70;;;9.30;99.90;;;;;;5075076;28;20169;-82
2023/03/15 08:38:18;;;;;;;8.70;5.43;;;9.30;99.90;;;;;;5073086;28;20673;-82
2023/03/15 08:40:45;;;;;;;6.20;5.07;;;9.30;99.90;;;;;;5074621;28;20222;-88
2023/03/15 08:43:11;;;;;;;5.30;4.65;;;9.30;99.90;;;;;;5074817;28;20657;-89
2023/03/15 08:45:37;;;;;;;7.90;4.60;;;9.30;99.90;;;;;;5073695;28;20222;-86
2023/03/15 08:48:02;;;;;;;7.00;5.90;;;9.30;99.90;;;;;;5074725;28;20213;-89
2023/03/15 08:50:31;;;;;;;7.10;5.70;;;9.30;99.90;;;;;;5073565;28;20630;-82
2023/03/15 08:52:57;;;;;;;7.38;5.65;;;9.30;99.90;;;;;;5073151;28;20529;-82
2023/03/15 08:55:23;;;;;;;6.97;6.00;;;9.30;99.90;;;;;;5074381;28;20260;-85
2023/03/15 08:57:48;;;;;;;7.37;6.53;;;9.30;99.90;;;;;;5075292;28;20422;-82
2023/03/15 09:00:24;;;;;;;7.33;6.40;;;9.30;99.90;;;;;;5074592;28;20181;-87
2023/03/15 09:02:53;;;;;;;8.10;6.07;;;9.30;99.90;;;;;;5074795;28;20196;-82
2023/03/15 09:05:21;;;;;;;8.00;6.50;;;9.30;99.90;;;;;;5074404;28;20173;-87
2023/03/15 09:07:47;;;;;;;9.88;6.38;;;9.20;99.90;;;;;;5072962;28;20196;-88
2023/03/15 09:10:14;;;;;;;9.70;7.03;;;9.20;99.90;;;;;;5073359;28;20212;-83
2023/03/15 09:12:52;;;;;;;8.73;7.00;;;9.30;99.90;;;;;;5074526;28;20223;-88
2023/03/15 09:15:18;;;;;;;11.13;7.15;;;9.30;99.90;;;;;;5074526;28;20260;-83
2023/03/15 09:17:44;;;;;;;9.97;6.80;;;9.30;99.90;;;;;;5074832;28;20220;-88
2023/03/15 09:20:15;;;;;;;9.38;7.03;;;9.30;99.90;;;;;;5074529;28;20456;-83
2023/03/15 09:22:42;;;;;;;10.27;7.30;;;9.40;99.90;;;;;;5072901;28;20204;-82
2023/03/15 09:25:08;;;;;;;11.77;7.88;;;9.40;99.90;;;;;;5074479;28;20178;-88
2023/03/15 09:27:34;;;;;;;9.10;6.82;;;9.40;99.90;;;;;;5072776;28;20542;-83
2023/03/15 09:30:00;;;;;;;11.00;7.10;;;9.40;99.90;;;;;;5072931;28;20283;-87
2023/03/15 09:32:26;;;;;;;9.73;7.27;;;9.40;99.90;;;;;;5072582;28;20474;-83
2023/03/15 09:34:52;;;;;;;8.80;7.47;;;9.30;99.90;;;;;;5072849;28;20185;-81
2023/03/15 09:37:19;;;;;;;8.53;6.80;;;9.40;99.90;;;;;;5073831;28;20490;-88
2023/03/15 09:39:45;;;;;;;9.02;7.07;;;9.40;99.90;;;;;;5074321;28;20173;-82
2023/03/15 09:42:38;;;;;;;9.93;7.77;;;9.40;99.90;;;;;;5072637;28;20556;-82
2023/03/15 09:45:17;;;;;;;10.82;7.97;;;9.40;99.90;;;;;;5074368;28;20181;-82
2023/03/15 09:48:10;;;;;;;10.30;7.45;;;9.40;99.90;;;;;;5072503;28;20208;-82
2023/03/15 09:50:59;;;;;;;9.82;7.53;;;9.30;99.90;;;;;;5072536;28;20608;-88
2023/03/15 09:53:31;;;;;;;9.35;7.60;;;9.30;99.90;;;;;;5073728;28;20292;-82
2023/03/15 09:55:57;;;;;;;9.95;7.95;;;9.30;99.90;;;;;;5073790;28;20164;-88
2023/03/15 09:58:25;;;;;;;9.48;7.55;;;9.20;99.90;;;;;;5073713;28;20687;-87
2023/03/15 10:01:10;;;;;;;12.05;8.02;;;9.20;99.90;;;;;;5072373;28;20196;-88
2023/03/15 10:03:50;;;;;;;11.57;8.40;;;9.20;99.90;;;;;;5073919;28;20646;-82
2023/03/15 10:06:24;;;;;;;11.15;7.50;;;9.10;99.90;;;;;;5072655;28;20189;-88
2023/03/15 10:08:55;;;;;;;13.18;9.00;;;9.10;99.90;;;;;;5072451;28;20662;-87
2023/03/15 10:11:58;;;;;;;12.25;8.65;;;9.10;99.90;;;;;;5073634;28;20662;-82
2023/03/15 10:14:33;;;;;;;12.23;8.75;;;9.10;99.90;;;;;;5071724;28;20236;-82
2023/03/15 10:17:01;;;;;;;14.68;10.30;;;9.10;99.90;;;;;;5072636;28;20246;-86
2023/03/15 10:19:43;;;;;;;14.02;9.70;;;9.10;99.90;;;;;;5072909;28;20558;-88
2023/03/15 10:22:20;;;;;;;13.88;9.43;;;9.10;99.90;;;;;;5071321;28;20197;-89
2023/03/15 10:24:58;;;;;;;12.57;8.95;;;9.10;99.90;;;;;;5071518;28;20637;-87
2023/03/15 10:27:57;;;;;;;12.35;8.98;;;9.00;99.90;;;;;;5075656;28;20208;-82
2023/03/15 10:30:28;;;;;;;14.00;8.60;;;9.00;99.90;;;;;;5074892;28;20188;-90
2023/03/15 10:33:13;;;;;;;10.57;8.10;;;9.00;99.90;;;;;;5075759;28;20205;-81
2023/03/15 10:35:40;;;;;;;13.35;8.68;;;9.00;99.90;;;;;;5074675;28;20205;-82
2023/03/15 10:38:20;;;;;;;15.27;10.90;;;8.90;99.90;;;;;;5074605;28;20209;-82
2023/03/15 10:40:58;;;;;;;13.18;9.27;;;8.90;99.90;;;;;;5075809;28;20238;-82
2023/03/15 10:43:24;;;;;;;13.35;9.60;;;9.00;99.90;;;;;;5074630;28;20629;-89
2023/03/15 10:46:20;;;;;;;13.20;9.25;;;8.90;99.90;;;;;;5075690;28;20662;-87
2023/03/15 10:48:59;;;;;;;15.63;10.63;;;8.90;99.90;;;;;;5075910;28;20204;-84
2023/03/15 10:51:28;;;;;;;15.48;11.40;;;;;;;;;;5076004;28;20220;-82
2023/03/15 10:54:06;;;;;;;15.93;11.32;;;8.90;99.90;;;;;;5074241;28;20211;-81
2023/03/15 10:56:36;;;;;;;20.35;13.52;;;8.90;99.90;;;;;;5075675;28;20221;-89
2023/03/15 10:59:02;;;;;;;15.60;10.65;;;8.90;99.90;;;;;;5074570;28;20543;-89
2023/03/15 11:01:34;;;;;;;14.70;10.73;;;8.90;99.90;;;;;;5075696;28;20177;-87
2023/03/15 11:04:08;;;;;;;14.90;10.68;;;9.00;99.90;;;;;;5075170;28;20264;-82
2023/03/15 11:06:57;;;;;;;13.63;10.68;;;9.00;99.90;;;;;;5075662;28;20227;-82
2023/03/15 11:09:25;;;;;;;14.38;9.90;;;9.00;99.90;;;;;;5074377;28;20192;-81
2023/03/15 11:11:57;;;;;;;13.18;9.77;;;9.10;99.90;;;;;;5073993;28;20228;-82
2023/03/15 11:14:23;;;;;;;13.70;9.83;;;9.10;99.90;;;;;;5030617;28;1250759;-88
2023/03/15 11:16:52;;;;;;;12.68;10.02;;;9.20;99.90;;;;;;5076459;28;20646;-87
2023/03/15 11:19:22;;;;;;;14.27;10.20;;;9.20;99.90;;;;;;5075325;28;20265;-87
2023/03/15 11:21:49;;;;;;;11.35;9.50;;;9.20;99.90;;;;;;5075126;28;20224;-88
2023/03/15 11:24:23;;;;;;;13.55;10.07;;;9.20;99.90;;;;;;5075011;28;20635;-82
2023/03/15 11:26:53;;;;;;;13.95;10.20;;;9.30;99.90;;;;;;5075146;28;20176;-88
2023/03/15 11:29:30;;;;;;;13.52;9.63;;;9.30;99.90;;;;;;5075191;28;20184;-82
2023/03/15 11:31:59;;;;;;;15.52;8.70;;;9.30;99.90;;;;;;5076327;28;20252;-81
2023/03/15 11:34:24;;;;;;;12.93;8.30;;;9.30;99.90;;;;;;5076267;28;20161;-81
2023/03/15 11:36:59;;;;;;;9.80;8.43;;;9.40;99.90;;;;;;5074555;28;20188;-82
2023/03/15 11:40:07;;;;;;;10.52;7.80;;;9.40;99.90;;;;;;5077711;28;20169;-82
2023/03/15 11:42:40;;;;;;;7.47;6.43;;;9.50;99.90;;;;;;5075950;28;20205;-89
2023/03/15 11:45:28;;;;;;;8.75;5.40;;;9.50;99.90;;;;;;5075226;28;20189;-82
2023/03/15 11:47:58;;;;;;;4.78;3.40;;;9.60;99.90;;;;;;5075896;28;20673;-82
2023/03/15 11:50:24;;;;;;;1.58;1.48;;;9.60;99.90;;;;;;5074762;28;20524;-82
2023/03/15 11:52:50;;;;;;;1.80;1.67;;;9.60;99.90;;;;;;5075618;28;20227;-82
2023/03/15 11:55:26;;;;;;;2.33;2.13;;;9.70;99.90;;;;;;5075919;28;20185;-89
2023/03/15 11:57:53;;;;;;;1.50;1.40;;;9.70;99.90;;;;;;5074599;28;20656;-82
2023/03/15 12:00:33;;;;;;;1.45;1.35;;;9.60;99.90;;;;;;5074626;28;20185;-89
2023/03/15 12:03:48;;;;;;;2.08;1.67;;;9.70;99.90;;;;;;5074498;28;20322;-89
2023/03/15 12:06:17;;;;;;;2.63;1.63;;;9.70;99.90;;;;;;5069769;28;20208;-81
2023/03/15 12:08:51;;;;;;;2.72;1.90;;;9.80;99.90;;;;;;5075759;28;20200;-82
2023/03/15 12:11:23;;;;;;;2.40;2.20;;;9.80;99.90;;;;;;5076107;28;20189;-90
2023/03/15 12:14:18;;;;;;;1.80;1.48;;;9.70;99.90;;;;;;5075364;28;20622;-81
2023/03/15 12:16:45;;;;;;;1.73;1.63;;;9.80;99.90;;;;;;5074136;28;20708;-89
2023/03/15 12:19:17;;;;;;;1.60;1.10;;;9.70;99.90;;;;;;5074472;28;20283;-90
2023/03/15 12:21:50;;;;;;;2.30;1.63;;;9.70;99.90;;;;;;5074502;28;20223;-89
2023/03/15 12:24:26;;;;;;;2.10;1.80;;;9.60;99.90;;;;;;5074526;28;20204;-82
2023/03/15 12:26:58;;;;;;;3.92;2.00;;;9.70;99.90;;;;;;5075515;28;20200;-90
2023/03/15 12:29:26;;;;;;;1.92;1.80;;;9.50;99.90;;;;;;5074415;28;20276;-88
2023/03/15 12:31:57;;;;;;;2.25;2.05;;;9.50;99.90;;;;;;5073845;28;20213;-82
2023/03/15 12:34:29;;;;;;;2.00;1.88;;;9.60;99.90;;;;;;5073956;28;20181;-83
2023/03/15 12:37:03;;;;;;;2.20;2.00;;;9.60;99.90;;;;;;5073885;28;20657;-81
2023/03/15 12:39:55;;;;;;;2.45;2.08;;;9.60;99.90;;;;;;5074170;28;20694;-90
2023/03/15 12:42:30;;;;;;;2.80;2.38;;;9.60;99.90;;;;;;5073938;28;20209;-83
2023/03/15 12:45:14;;;;;;;2.20;2.00;;;9.60;99.90;;;;;;5073917;28;20208;-82
2023/03/15 12:48:11;;;;;;;2.65;2.05;;;9.60;99.90;;;;;;5074780;28;20287;-83
2023/03/15 12:50:43;;;;;;;2.42;1.90;;;9.60;99.90;;;;;;5073304;28;20208;-82
2023/03/15 12:53:21;;;;;;;1.95;1.85;;;9.60;99.90;;;;;;5074589;28;20224;-90
2023/03/15 12:55:48;;;;;;;3.42;2.85;;;9.70;99.90;;;;;;5075018;28;20191;-90
2023/03/15 12:58:16;;;;;;;2.67;1.98;;;9.70;99.90;;;;;;5073314;28;20323;-81
2023/03/15 13:00:43;;;;;;;3.55;2.45;;;9.60;99.90;;;;;;5073349;28;20191;-90